PWSweather.com
Personal Weather Stations
Station Observations
WATERF01
WaterfordIE

WaterfordIE

Lat: 52.2412507, Lon: -7.1414691

Elevation: 65

Station Type: Davis Vantage Vue

www.waterfordweather.com

High Low Average
Temperature 48.6°F9.2°C 37.9°F3.3°C 43.7°F6.5°C
Dew Point 43.5°F6.4°C 36.3°F2.4°C 40.1°F4.5°C
Winds 15.0 mph 24.1 kmh Calm Calm 6.0 mph W9.7 kmh W
Wind Gusts 27.6 mph44.4 kmh -- 10.0 mph16.1 kmh
Humidity 95% 80% 87%
Pressure 29.85 in1010.8 mb 29.31 in992.6 mb -
Precipitation 0.02 in0.5 mm - -
Hour Temp Dew Point Humidity Winds Wind Gusts Pressure Precip Precip Rate Daily Precip Total
12:00 AM 40.4°F4.7°C 38.3°F3.5°C 92% 4.6 mph WNW7.4 kmh WNW 9.2 mph14.8 kmh 29.41 in995.9 mb - 0.00 in0.0 mm 0.00 in0.0 mm
12:10 AM 40.9°F4.9°C 38.8°F3.8°C 92% 6.9 mph WSW11.1 kmh WSW 11.5 mph18.5 kmh 29.40 in995.6 mb - 0.00 in0.0 mm 0.00 in0.0 mm
12:20 AM 41.5°F5.3°C 39.1°F3.9°C 91% 5.8 mph WSW9.3 kmh WSW 11.5 mph18.5 kmh 29.40 in995.6 mb - 0.00 in0.0 mm 0.00 in0.0 mm
12:30 AM 42.4°F5.8°C 39.4°F4.1°C 89% 8.1 mph W13.0 kmh W 12.7 mph20.4 kmh 29.39 in995.3 mb - 0.00 in0.0 mm 0.00 in0.0 mm
12:40 AM 42.4°F5.8°C 39.4°F4.1°C 89% 8.1 mph W13.0 kmh W 16.1 mph25.9 kmh 29.39 in995.3 mb - 0.00 in0.0 mm 0.00 in0.0 mm
12:50 AM 42.0°F5.6°C 39.3°F4.1°C 90% 4.6 mph WSW7.4 kmh WSW 11.5 mph18.5 kmh 29.39 in995.3 mb - 0.00 in0.0 mm 0.00 in0.0 mm
01:00 AM 41.6°F5.3°C 38.9°F3.8°C 90% 5.8 mph W9.3 kmh W 12.7 mph20.4 kmh 29.39 in995.3 mb - 0.00 in0.0 mm 0.00 in0.0 mm
01:10 AM 41.5°F5.3°C 38.8°F3.8°C 90% 4.6 mph NW7.4 kmh NW 8.1 mph13.0 kmh 29.39 in995.3 mb - 0.00 in0.0 mm 0.00 in0.0 mm
01:20 AM 41.0°F5.0°C 38.6°F3.7°C 91% 2.3 mph SW3.7 kmh SW 5.8 mph9.3 kmh 29.39 in995.3 mb - 0.00 in0.0 mm 0.00 in0.0 mm
01:30 AM 41.3°F5.2°C 38.8°F3.8°C 91% 4.6 mph W7.4 kmh W 9.2 mph14.8 kmh 29.39 in995.3 mb - 0.00 in0.0 mm 0.00 in0.0 mm
01:40 AM 41.5°F5.3°C 38.8°F3.8°C 90% 4.6 mph W7.4 kmh W 12.7 mph20.4 kmh 29.39 in995.3 mb - 0.00 in0.0 mm 0.00 in0.0 mm
01:50 AM 41.4°F5.2°C 38.7°F3.7°C 90% 4.6 mph W7.4 kmh W 11.5 mph18.5 kmh 29.39 in995.3 mb - 0.00 in0.0 mm 0.00 in0.0 mm
02:00 AM 41.6°F5.3°C 39.2°F4.0°C 91% 6.9 mph W11.1 kmh W 13.8 mph22.2 kmh 29.38 in994.9 mb - 0.00 in0.0 mm 0.00 in0.0 mm
02:10 AM 41.5°F5.3°C 39.1°F3.9°C 91% 5.8 mph W9.3 kmh W 12.7 mph20.4 kmh 29.38 in994.9 mb - 0.00 in0.0 mm 0.00 in0.0 mm
02:20 AM 41.3°F5.2°C 38.9°F3.8°C 91% 4.6 mph WNW7.4 kmh WNW 11.5 mph18.5 kmh 29.38 in994.9 mb - 0.00 in0.0 mm 0.00 in0.0 mm
02:30 AM 40.9°F4.9°C 38.5°F3.6°C 91% 3.5 mph W5.6 kmh W 8.1 mph13.0 kmh 29.38 in994.9 mb - 0.00 in0.0 mm 0.00 in0.0 mm
02:40 AM 40.9°F4.9°C 38.8°F3.8°C 92% 6.9 mph WSW11.1 kmh WSW 11.5 mph18.5 kmh 29.38 in994.9 mb - 0.00 in0.0 mm 0.00 in0.0 mm
02:50 AM 41.1°F5.1°C 38.7°F3.7°C 91% 5.8 mph WSW9.3 kmh WSW 8.1 mph13.0 kmh 29.37 in994.6 mb - 0.00 in0.0 mm 0.00 in0.0 mm
03:00 AM 41.1°F5.1°C 38.7°F3.7°C 91% 5.8 mph W9.3 kmh W 8.1 mph13.0 kmh 29.37 in994.6 mb - 0.00 in0.0 mm 0.00 in0.0 mm
03:10 AM 41.0°F5.0°C 38.6°F3.7°C 91% 5.8 mph W9.3 kmh W 8.1 mph13.0 kmh 29.36 in994.2 mb - 0.00 in0.0 mm 0.00 in0.0 mm
03:20 AM 41.2°F5.1°C 38.8°F3.8°C 91% 6.9 mph W11.1 kmh W 12.7 mph20.4 kmh 29.35 in993.9 mb - 0.00 in0.0 mm 0.00 in0.0 mm
03:30 AM 41.5°F5.3°C 39.1°F3.9°C 91% 5.8 mph W9.3 kmh W 9.2 mph14.8 kmh 29.35 in993.9 mb - 0.00 in0.0 mm 0.00 in0.0 mm
03:40 AM 41.5°F5.3°C 39.1°F3.9°C 91% 6.9 mph W11.1 kmh W 9.2 mph14.8 kmh 29.35 in993.9 mb - 0.00 in0.0 mm 0.00 in0.0 mm
03:50 AM 41.3°F5.2°C 38.9°F3.8°C 91% 5.8 mph WSW9.3 kmh WSW 8.1 mph13.0 kmh 29.34 in993.6 mb - 0.00 in0.0 mm 0.00 in0.0 mm
04:00 AM 41.0°F5.0°C 38.6°F3.7°C 91% 3.5 mph W5.6 kmh W 8.1 mph13.0 kmh 29.34 in993.6 mb - 0.00 in0.0 mm 0.00 in0.0 mm
04:10 AM 40.8°F4.9°C 38.7°F3.7°C 92% 3.5 mph WSW5.6 kmh WSW 8.1 mph13.0 kmh 29.33 in993.2 mb - 0.00 in0.0 mm 0.00 in0.0 mm
04:20 AM 40.8°F4.9°C 38.7°F3.7°C 92% 3.5 mph WNW5.6 kmh WNW 6.9 mph11.1 kmh 29.33 in993.2 mb - 0.00 in0.0 mm 0.00 in0.0 mm
04:30 AM 41.2°F5.1°C 39.1°F3.9°C 92% 3.5 mph W5.6 kmh W 8.1 mph13.0 kmh 29.33 in993.2 mb - 0.00 in0.0 mm 0.00 in0.0 mm
04:40 AM 41.6°F5.3°C 39.4°F4.1°C 92% 3.5 mph W5.6 kmh W 5.8 mph9.3 kmh 29.33 in993.2 mb - 0.01 in0.3 mm 0.01 in0.3 mm
04:50 AM 41.5°F5.3°C 39.3°F4.1°C 92% 1.2 mph W1.9 kmh W 5.8 mph9.3 kmh 29.32 in992.9 mb - 0.00 in0.0 mm 0.01 in0.3 mm
05:00 AM 41.3°F5.2°C 39.1°F3.9°C 92% 1.2 mph WSW1.9 kmh WSW 5.8 mph9.3 kmh 29.32 in992.9 mb - 0.01 in0.3 mm 0.02 in0.5 mm
05:10 AM 40.9°F4.9°C 39.0°F3.9°C 93% 3.5 mph W5.6 kmh W 6.9 mph11.1 kmh 29.31 in992.6 mb - 0.00 in0.0 mm 0.02 in0.5 mm
05:20 AM 40.8°F4.9°C 38.9°F3.8°C 93% 5.8 mph WSW9.3 kmh WSW 11.5 mph18.5 kmh 29.31 in992.6 mb - 0.00 in0.0 mm 0.02 in0.5 mm
05:30 AM 40.8°F4.9°C 38.9°F3.8°C 93% 3.5 mph W5.6 kmh W 5.8 mph9.3 kmh 29.31 in992.6 mb - 0.00 in0.0 mm 0.02 in0.5 mm
05:40 AM 40.7°F4.8°C 38.9°F3.8°C 93% 1.2 mph WNW1.9 kmh WNW 2.3 mph3.7 kmh 29.31 in992.6 mb - 0.00 in0.0 mm 0.02 in0.5 mm
05:50 AM 40.6°F4.8°C 38.7°F3.7°C 93% 1.2 mph NW1.9 kmh NW 2.3 mph3.7 kmh 29.32 in992.9 mb - 0.00 in0.0 mm 0.02 in0.5 mm
06:00 AM 40.7°F4.8°C 38.8°F3.8°C 93% 2.3 mph W3.7 kmh W 5.8 mph9.3 kmh 29.32 in992.9 mb - 0.00 in0.0 mm 0.02 in0.5 mm
06:10 AM 40.8°F4.9°C 38.9°F3.8°C 93% 2.3 mph WNW3.7 kmh WNW 5.8 mph9.3 kmh 29.32 in992.9 mb - 0.00 in0.0 mm 0.02 in0.5 mm
06:20 AM 41.3°F5.2°C 39.2°F4.0°C 92% Calm Calm -- 29.32 in992.9 mb - 0.00 in0.0 mm 0.02 in0.5 mm
06:30 AM 41.3°F5.2°C 39.2°F4.0°C 92% Calm Calm -- 29.33 in993.2 mb - 0.00 in0.0 mm 0.02 in0.5 mm
06:40 AM 41.3°F5.2°C 38.9°F3.8°C 91% Calm Calm -- 29.34 in993.6 mb - 0.00 in0.0 mm 0.02 in0.5 mm
06:50 AM 41.4°F5.2°C 38.9°F3.8°C 91% 1.2 mph WNW1.9 kmh WNW 2.3 mph3.7 kmh 29.34 in993.6 mb - 0.00 in0.0 mm 0.02 in0.5 mm
07:00 AM 40.8°F4.9°C 38.4°F3.6°C 91% 1.2 mph WNW1.9 kmh WNW 5.8 mph9.3 kmh 29.34 in993.6 mb - 0.00 in0.0 mm 0.02 in0.5 mm
07:10 AM 40.4°F4.7°C 38.3°F3.5°C 92% Calm Calm -- 29.35 in993.9 mb - 0.00 in0.0 mm 0.02 in0.5 mm
07:20 AM 40.1°F4.5°C 38.0°F3.3°C 92% Calm Calm -- 29.35 in993.9 mb - 0.00 in0.0 mm 0.02 in0.5 mm
07:30 AM 39.7°F4.3°C 37.6°F3.1°C 92% Calm Calm -- 29.36 in994.2 mb - 0.00 in0.0 mm 0.02 in0.5 mm
07:40 AM 38.7°F3.7°C 36.9°F2.7°C 93% Calm Calm -- 29.36 in994.2 mb - 0.00 in0.0 mm 0.02 in0.5 mm
07:50 AM 38.2°F3.4°C 36.3°F2.4°C 93% Calm Calm -- 29.37 in994.6 mb - 0.00 in0.0 mm 0.02 in0.5 mm
08:00 AM 37.9°F3.3°C 36.3°F2.4°C 94% Calm Calm -- 29.37 in994.6 mb - 0.00 in0.0 mm 0.02 in0.5 mm
08:10 AM 38.7°F3.7°C 37.4°F3.0°C 95% 2.3 mph WNW3.7 kmh WNW 11.5 mph18.5 kmh 29.37 in994.6 mb - 0.00 in0.0 mm 0.02 in0.5 mm
08:20 AM 41.9°F5.5°C 40.0°F4.4°C 93% 3.5 mph WNW5.6 kmh WNW 8.1 mph13.0 kmh 29.38 in994.9 mb - 0.00 in0.0 mm 0.02 in0.5 mm
08:30 AM 41.5°F5.3°C 39.1°F3.9°C 91% 3.5 mph WNW5.6 kmh WNW 9.2 mph14.8 kmh 29.39 in995.3 mb - 0.00 in0.0 mm 0.02 in0.5 mm
08:40 AM 41.1°F5.1°C 38.7°F3.7°C 91% 1.2 mph WSW1.9 kmh WSW 5.8 mph9.3 kmh 29.39 in995.3 mb - 0.00 in0.0 mm 0.02 in0.5 mm
08:50 AM 40.5°F4.7°C 38.3°F3.5°C 92% Calm Calm -- 29.40 in995.6 mb - 0.00 in0.0 mm 0.02 in0.5 mm
09:00 AM 40.4°F4.7°C 38.3°F3.5°C 92% Calm Calm -- 29.41 in995.9 mb - 0.00 in0.0 mm 0.02 in0.5 mm
09:10 AM 40.7°F4.8°C 38.6°F3.7°C 92% Calm Calm -- 29.41 in995.9 mb - 0.00 in0.0 mm 0.02 in0.5 mm
09:20 AM 41.0°F5.0°C 38.6°F3.7°C 91% Calm Calm -- 29.41 in995.9 mb - 0.00 in0.0 mm 0.02 in0.5 mm
09:30 AM 41.6°F5.3°C 39.2°F4.0°C 91% 1.2 mph WSW1.9 kmh WSW 2.3 mph3.7 kmh 29.42 in996.3 mb - 0.00 in0.0 mm 0.02 in0.5 mm
09:40 AM 42.6°F5.9°C 39.9°F4.4°C 90% 3.5 mph WNW5.6 kmh WNW 8.1 mph13.0 kmh 29.43 in996.6 mb - 0.00 in0.0 mm 0.02 in0.5 mm
09:50 AM 43.9°F6.6°C 40.3°F4.6°C 87% 6.9 mph W11.1 kmh W 9.2 mph14.8 kmh 29.43 in996.6 mb - 0.00 in0.0 mm 0.02 in0.5 mm
10:00 AM 45.3°F7.4°C 41.1°F5.1°C 85% 5.8 mph WNW9.3 kmh WNW 12.7 mph20.4 kmh 29.44 in997.0 mb - 0.00 in0.0 mm 0.02 in0.5 mm
10:10 AM 45.5°F7.5°C 41.0°F5.0°C 84% 6.9 mph WNW11.1 kmh WNW 12.7 mph20.4 kmh 29.45 in997.3 mb - 0.00 in0.0 mm 0.02 in0.5 mm
10:20 AM 45.6°F7.6°C 40.7°F4.8°C 83% 6.9 mph WNW11.1 kmh WNW 11.5 mph18.5 kmh 29.46 in997.6 mb - 0.00 in0.0 mm 0.02 in0.5 mm
10:30 AM 45.5°F7.5°C 40.9°F4.9°C 84% 8.1 mph NW13.0 kmh NW 19.6 mph31.5 kmh 29.47 in998.0 mb - 0.00 in0.0 mm 0.02 in0.5 mm
10:40 AM 46.1°F7.8°C 41.9°F5.5°C 85% 10.4 mph NW16.7 kmh NW 13.8 mph22.2 kmh 29.47 in998.0 mb - 0.00 in0.0 mm 0.02 in0.5 mm
10:50 AM 46.7°F8.2°C 42.4°F5.8°C 85% 10.4 mph WNW16.7 kmh WNW 16.1 mph25.9 kmh 29.47 in998.0 mb - 0.00 in0.0 mm 0.02 in0.5 mm
11:00 AM 47.1°F8.4°C 42.5°F5.8°C 84% 10.4 mph WNW16.7 kmh WNW 18.4 mph29.6 kmh 29.48 in998.3 mb - 0.00 in0.0 mm 0.02 in0.5 mm
11:10 AM 47.0°F8.3°C 42.4°F5.8°C 84% 13.8 mph WNW22.2 kmh WNW 23.0 mph37.0 kmh 29.48 in998.3 mb - 0.00 in0.0 mm 0.02 in0.5 mm
11:20 AM 47.5°F8.6°C 42.6°F5.9°C 83% 15.0 mph WNW24.1 kmh WNW 23.0 mph37.0 kmh 29.48 in998.3 mb - 0.00 in0.0 mm 0.02 in0.5 mm
11:30 AM 47.0°F8.3°C 42.7°F5.9°C 85% 9.2 mph WNW14.8 kmh WNW 19.6 mph31.5 kmh 29.48 in998.3 mb - 0.00 in0.0 mm 0.02 in0.5 mm
11:40 AM 47.3°F8.5°C 43.0°F6.1°C 85% 13.8 mph WNW22.2 kmh WNW 27.6 mph44.4 kmh 29.49 in998.6 mb - 0.00 in0.0 mm 0.02 in0.5 mm
11:50 AM 47.6°F8.7°C 43.0°F6.1°C 84% 13.8 mph WNW22.2 kmh WNW 21.9 mph35.2 kmh 29.50 in999.0 mb - 0.00 in0.0 mm 0.02 in0.5 mm
12:00 PM 47.5°F8.6°C 42.9°F6.1°C 84% 11.5 mph WNW18.5 kmh WNW 21.9 mph35.2 kmh 29.51 in999.3 mb - 0.00 in0.0 mm 0.02 in0.5 mm
12:10 PM 47.5°F8.6°C 42.9°F6.1°C 84% 11.5 mph WNW18.5 kmh WNW 19.6 mph31.5 kmh 29.52 in999.7 mb - 0.00 in0.0 mm 0.02 in0.5 mm
12:20 PM 47.8°F8.8°C 43.2°F6.2°C 84% 10.4 mph WNW16.7 kmh WNW 19.6 mph31.5 kmh 29.52 in999.7 mb - 0.00 in0.0 mm 0.02 in0.5 mm
12:30 PM 48.1°F8.9°C 43.5°F6.4°C 84% 12.7 mph WNW20.4 kmh WNW 21.9 mph35.2 kmh 29.52 in999.7 mb - 0.00 in0.0 mm 0.02 in0.5 mm
12:40 PM 47.8°F8.8°C 43.2°F6.2°C 84% 10.4 mph WNW16.7 kmh WNW 19.6 mph31.5 kmh 29.53 in1000.0 mb - 0.00 in0.0 mm 0.02 in0.5 mm
12:50 PM 48.1°F8.9°C 43.5°F6.4°C 84% 12.7 mph NW20.4 kmh NW 21.9 mph35.2 kmh 29.54 in1000.3 mb - 0.00 in0.0 mm 0.02 in0.5 mm
01:00 PM 48.1°F8.9°C 43.2°F6.2°C 83% 13.8 mph NW22.2 kmh NW 25.3 mph40.7 kmh 29.55 in1000.7 mb - 0.00 in0.0 mm 0.02 in0.5 mm
01:10 PM 48.1°F8.9°C 43.2°F6.2°C 83% 11.5 mph WNW18.5 kmh WNW 16.1 mph25.9 kmh 29.56 in1001.0 mb - 0.00 in0.0 mm 0.02 in0.5 mm
01:20 PM 48.6°F9.2°C 43.3°F6.3°C 82% 11.5 mph WNW18.5 kmh WNW 20.7 mph33.3 kmh 29.57 in1001.4 mb - 0.00 in0.0 mm 0.02 in0.5 mm
01:30 PM 48.3°F9.1°C 43.4°F6.3°C 83% 10.4 mph WNW16.7 kmh WNW 15.0 mph24.1 kmh 29.58 in1001.7 mb - 0.00 in0.0 mm 0.02 in0.5 mm
01:40 PM 48.0°F8.9°C 42.4°F5.8°C 81% 12.7 mph NW20.4 kmh NW 20.7 mph33.3 kmh 29.59 in1002.0 mb - 0.00 in0.0 mm 0.02 in0.5 mm
01:50 PM 48.1°F8.9°C 42.5°F5.8°C 81% 11.5 mph WNW18.5 kmh WNW 21.9 mph35.2 kmh 29.60 in1002.4 mb - 0.00 in0.0 mm 0.02 in0.5 mm
02:00 PM 47.6°F8.7°C 42.7°F5.9°C 83% 9.2 mph WNW14.8 kmh WNW 13.8 mph22.2 kmh 29.61 in1002.7 mb - 0.00 in0.0 mm 0.02 in0.5 mm
02:10 PM 47.6°F8.7°C 43.0°F6.1°C 84% 8.1 mph WNW13.0 kmh WNW 25.3 mph40.7 kmh 29.61 in1002.7 mb - 0.00 in0.0 mm 0.02 in0.5 mm
02:20 PM 47.8°F8.8°C 42.9°F6.1°C 83% 12.7 mph WNW20.4 kmh WNW 18.4 mph29.6 kmh 29.62 in1003.0 mb - 0.00 in0.0 mm 0.02 in0.5 mm
02:30 PM 47.9°F8.8°C 43.0°F6.1°C 83% 13.8 mph WNW22.2 kmh WNW 27.6 mph44.4 kmh 29.62 in1003.0 mb - 0.00 in0.0 mm 0.02 in0.5 mm
02:40 PM 48.1°F8.9°C 42.9°F6.1°C 82% 12.7 mph NW20.4 kmh NW 19.6 mph31.5 kmh 29.64 in1003.7 mb - 0.00 in0.0 mm 0.02 in0.5 mm
02:50 PM 48.1°F8.9°C 42.6°F5.9°C 81% 11.5 mph WNW18.5 kmh WNW 16.1 mph25.9 kmh 29.65 in1004.1 mb - 0.00 in0.0 mm 0.02 in0.5 mm
03:00 PM 48.1°F8.9°C 42.9°F6.1°C 82% 11.5 mph WNW18.5 kmh WNW 17.3 mph27.8 kmh 29.65 in1004.1 mb - 0.00 in0.0 mm 0.02 in0.5 mm
03:10 PM 47.9°F8.8°C 42.7°F5.9°C 82% 6.9 mph WNW11.1 kmh WNW 15.0 mph24.1 kmh 29.66 in1004.4 mb - 0.00 in0.0 mm 0.02 in0.5 mm
03:20 PM 47.8°F8.8°C 42.9°F6.1°C 83% 6.9 mph W11.1 kmh W 12.7 mph20.4 kmh 29.67 in1004.7 mb - 0.00 in0.0 mm 0.02 in0.5 mm
03:30 PM 47.7°F8.7°C 42.8°F6.0°C 83% 9.2 mph WNW14.8 kmh WNW 12.7 mph20.4 kmh 29.68 in1005.1 mb - 0.00 in0.0 mm 0.02 in0.5 mm
03:40 PM 47.8°F8.8°C 42.6°F5.9°C 82% 12.7 mph WNW20.4 kmh WNW 21.9 mph35.2 kmh 29.68 in1005.1 mb - 0.00 in0.0 mm 0.02 in0.5 mm
03:50 PM 47.7°F8.7°C 42.5°F5.8°C 82% 11.5 mph WNW18.5 kmh WNW 19.6 mph31.5 kmh 29.69 in1005.4 mb - 0.00 in0.0 mm 0.02 in0.5 mm
04:00 PM 47.5°F8.6°C 42.3°F5.7°C 82% 10.4 mph WNW16.7 kmh WNW 19.6 mph31.5 kmh 29.70 in1005.8 mb - 0.00 in0.0 mm 0.02 in0.5 mm
04:10 PM 47.2°F8.4°C 42.3°F5.7°C 83% 6.9 mph WNW11.1 kmh WNW 8.1 mph13.0 kmh 29.71 in1006.1 mb - 0.00 in0.0 mm 0.02 in0.5 mm
04:20 PM 47.0°F8.3°C 42.1°F5.6°C 83% 9.2 mph NW14.8 kmh NW 18.4 mph29.6 kmh 29.71 in1006.1 mb - 0.00 in0.0 mm 0.02 in0.5 mm
04:30 PM 46.9°F8.3°C 42.3°F5.7°C 84% 10.4 mph NW16.7 kmh NW 15.0 mph24.1 kmh 29.71 in1006.1 mb - 0.00 in0.0 mm 0.02 in0.5 mm
04:40 PM 46.8°F8.2°C 42.2°F5.7°C 84% 9.2 mph NW14.8 kmh NW 15.0 mph24.1 kmh 29.72 in1006.4 mb - 0.00 in0.0 mm 0.02 in0.5 mm
04:50 PM 46.6°F8.1°C 42.0°F5.6°C 84% 9.2 mph WNW14.8 kmh WNW 16.1 mph25.9 kmh 29.72 in1006.4 mb - 0.00 in0.0 mm 0.02 in0.5 mm
05:00 PM 46.4°F8.0°C 42.1°F5.6°C 85% 8.1 mph W13.0 kmh W 11.5 mph18.5 kmh 29.73 in1006.8 mb - 0.00 in0.0 mm 0.02 in0.5 mm
05:10 PM 46.3°F7.9°C 42.0°F5.6°C 85% 6.9 mph WNW11.1 kmh WNW 11.5 mph18.5 kmh 29.75 in1007.5 mb - 0.00 in0.0 mm 0.02 in0.5 mm
05:20 PM 46.1°F7.8°C 41.8°F5.4°C 85% 5.8 mph WNW9.3 kmh WNW 9.2 mph14.8 kmh 29.75 in1007.5 mb - 0.00 in0.0 mm 0.02 in0.5 mm
05:30 PM 46.0°F7.8°C 41.7°F5.4°C 85% 4.6 mph WNW7.4 kmh WNW 6.9 mph11.1 kmh 29.77 in1008.1 mb - 0.00 in0.0 mm 0.02 in0.5 mm
05:40 PM 46.0°F7.8°C 41.4°F5.2°C 84% 6.9 mph WNW11.1 kmh WNW 11.5 mph18.5 kmh 29.77 in1008.1 mb - 0.00 in0.0 mm 0.02 in0.5 mm
05:50 PM 45.9°F7.7°C 41.3°F5.2°C 84% 6.9 mph WNW11.1 kmh WNW 8.1 mph13.0 kmh 29.78 in1008.5 mb - 0.00 in0.0 mm 0.02 in0.5 mm
06:00 PM 46.0°F7.8°C 41.4°F5.2°C 84% 10.4 mph WNW16.7 kmh WNW 13.8 mph22.2 kmh 29.78 in1008.5 mb - 0.00 in0.0 mm 0.02 in0.5 mm
06:10 PM 46.4°F8.0°C 41.5°F5.3°C 83% 9.2 mph WNW14.8 kmh WNW 16.1 mph25.9 kmh 29.78 in1008.5 mb - 0.00 in0.0 mm 0.02 in0.5 mm
06:20 PM 46.4°F8.0°C 41.3°F5.2°C 82% 6.9 mph WNW11.1 kmh WNW 9.2 mph14.8 kmh 29.79 in1008.8 mb - 0.00 in0.0 mm 0.02 in0.5 mm
06:30 PM 46.1°F7.8°C 41.2°F5.1°C 83% 6.9 mph WNW11.1 kmh WNW 11.5 mph18.5 kmh 29.79 in1008.8 mb - 0.00 in0.0 mm 0.02 in0.5 mm
06:40 PM 45.8°F7.7°C 40.9°F4.9°C 83% 4.6 mph WNW7.4 kmh WNW 8.1 mph13.0 kmh 29.79 in1008.8 mb - 0.00 in0.0 mm 0.02 in0.5 mm
06:50 PM 45.5°F7.5°C 40.6°F4.8°C 83% 4.6 mph WNW7.4 kmh WNW 8.1 mph13.0 kmh 29.80 in1009.1 mb - 0.00 in0.0 mm 0.02 in0.5 mm
07:00 PM 45.1°F7.3°C 40.6°F4.8°C 84% 3.5 mph WNW5.6 kmh WNW 5.8 mph9.3 kmh 29.81 in1009.5 mb - 0.00 in0.0 mm 0.02 in0.5 mm
07:10 PM 44.4°F6.9°C 39.9°F4.4°C 84% 2.3 mph W3.7 kmh W 8.1 mph13.0 kmh 29.81 in1009.5 mb - 0.00 in0.0 mm 0.02 in0.5 mm
07:20 PM 44.3°F6.8°C 39.8°F4.3°C 84% 4.6 mph W7.4 kmh W 11.5 mph18.5 kmh 29.82 in1009.8 mb - 0.00 in0.0 mm 0.02 in0.5 mm
07:30 PM 44.5°F6.9°C 39.7°F4.3°C 83% 6.9 mph WNW11.1 kmh WNW 12.7 mph20.4 kmh 29.82 in1009.8 mb - 0.00 in0.0 mm 0.02 in0.5 mm
07:40 PM 44.7°F7.1°C 39.8°F4.3°C 83% 3.5 mph WNW5.6 kmh WNW 6.9 mph11.1 kmh 29.82 in1009.8 mb - 0.00 in0.0 mm 0.02 in0.5 mm
07:50 PM 44.3°F6.8°C 39.5°F4.2°C 83% 3.5 mph WNW5.6 kmh WNW 4.6 mph7.4 kmh 29.82 in1009.8 mb - 0.00 in0.0 mm 0.02 in0.5 mm
08:00 PM 43.9°F6.6°C 39.4°F4.1°C 84% 3.5 mph WNW5.6 kmh WNW 4.6 mph7.4 kmh 29.82 in1009.8 mb - 0.00 in0.0 mm 0.02 in0.5 mm
08:10 PM 44.1°F6.7°C 39.6°F4.2°C 84% 4.6 mph WNW7.4 kmh WNW 8.1 mph13.0 kmh 29.82 in1009.8 mb - 0.00 in0.0 mm 0.02 in0.5 mm
08:20 PM 44.4°F6.9°C 39.6°F4.2°C 83% 2.3 mph WNW3.7 kmh WNW 4.6 mph7.4 kmh 29.83 in1010.2 mb - 0.00 in0.0 mm 0.02 in0.5 mm
08:30 PM 44.1°F6.7°C 39.2°F4.0°C 83% 1.2 mph S1.9 kmh S 5.8 mph9.3 kmh 29.84 in1010.5 mb - 0.00 in0.0 mm 0.02 in0.5 mm
08:40 PM 42.3°F5.7°C 38.1°F3.4°C 85% 3.5 mph WSW5.6 kmh WSW 5.8 mph9.3 kmh 29.83 in1010.2 mb - 0.00 in0.0 mm 0.02 in0.5 mm
08:50 PM 41.5°F5.3°C 37.3°F2.9°C 85% Calm Calm -- 29.83 in1010.2 mb - 0.00 in0.0 mm 0.02 in0.5 mm
09:00 PM 41.3°F5.2°C 36.8°F2.7°C 84% 2.3 mph W3.7 kmh W 5.8 mph9.3 kmh 29.82 in1009.8 mb - 0.00 in0.0 mm 0.02 in0.5 mm
09:10 PM 42.6°F5.9°C 37.5°F3.1°C 82% 3.5 mph NW5.6 kmh NW 5.8 mph9.3 kmh 29.81 in1009.5 mb - 0.00 in0.0 mm 0.02 in0.5 mm
09:20 PM 42.9°F6.1°C 37.1°F2.8°C 80% 3.5 mph WNW5.6 kmh WNW 5.8 mph9.3 kmh 29.82 in1009.8 mb - 0.00 in0.0 mm 0.02 in0.5 mm
09:30 PM 43.0°F6.1°C 37.3°F2.9°C 80% Calm Calm -- 29.83 in1010.2 mb - 0.00 in0.0 mm 0.02 in0.5 mm
09:40 PM 42.0°F5.6°C 36.9°F2.7°C 82% 1.2 mph SW1.9 kmh SW 5.8 mph9.3 kmh 29.84 in1010.5 mb - 0.00 in0.0 mm 0.02 in0.5 mm
09:50 PM 41.8°F5.4°C 37.0°F2.8°C 83% 3.5 mph WNW5.6 kmh WNW 5.8 mph9.3 kmh 29.84 in1010.5 mb - 0.00 in0.0 mm 0.02 in0.5 mm
10:00 PM 43.1°F6.2°C 37.3°F2.9°C 80% 3.5 mph W5.6 kmh W 6.9 mph11.1 kmh 29.83 in1010.2 mb - 0.00 in0.0 mm 0.02 in0.5 mm
10:10 PM 43.5°F6.4°C 37.7°F3.2°C 80% 3.5 mph NW5.6 kmh NW 5.8 mph9.3 kmh 29.84 in1010.5 mb - 0.00 in0.0 mm 0.02 in0.5 mm
10:20 PM 42.9°F6.1°C 38.4°F3.6°C 84% 2.3 mph W3.7 kmh W 6.9 mph11.1 kmh 29.85 in1010.8 mb - 0.00 in0.0 mm 0.02 in0.5 mm
10:30 PM 43.3°F6.3°C 39.1°F3.9°C 85% 3.5 mph SW5.6 kmh SW 6.9 mph11.1 kmh 29.85 in1010.8 mb - 0.00 in0.0 mm 0.02 in0.5 mm
10:40 PM 42.7°F5.9°C 39.3°F4.1°C 88% 1.2 mph W1.9 kmh W 5.8 mph9.3 kmh 29.85 in1010.8 mb - 0.00 in0.0 mm 0.02 in0.5 mm
10:50 PM 42.1°F5.6°C 39.4°F4.1°C 90% 2.3 mph WNW3.7 kmh WNW 4.6 mph7.4 kmh 29.84 in1010.5 mb - 0.00 in0.0 mm 0.02 in0.5 mm
11:00 PM 42.2°F5.7°C 39.8°F4.3°C 91% 3.5 mph WNW5.6 kmh WNW 6.9 mph11.1 kmh 29.84 in1010.5 mb - 0.00 in0.0 mm 0.02 in0.5 mm
11:10 PM 42.2°F5.7°C 39.5°F4.2°C 90% Calm Calm -- 29.85 in1010.8 mb - 0.00 in0.0 mm 0.02 in0.5 mm
11:20 PM 41.9°F5.5°C 39.5°F4.2°C 91% Calm Calm -- 29.84 in1010.5 mb - 0.00 in0.0 mm 0.02 in0.5 mm
11:30 PM 41.2°F5.1°C 38.8°F3.8°C 91% Calm Calm -- 29.84 in1010.5 mb - 0.00 in0.0 mm 0.02 in0.5 mm
11:40 PM 40.6°F4.8°C 38.4°F3.6°C 92% Calm Calm -- 29.84 in1010.5 mb - 0.00 in0.0 mm 0.02 in0.5 mm
11:50 PM 39.9°F4.4°C 37.8°F3.2°C 92% Calm Calm -- 29.84 in1010.5 mb - 0.00 in0.0 mm 0.02 in0.5 mm